Time;durP1;ratioP1;P1;durP2;ratioP2;P2;SDS_P1;SDS_P2;PMS_P1;PMS_P2;Temp;Humidity;BMP_temperature;BMP_pressure;BME280_temperature;BME280_humidity;BME280_pressure;Samples;Min_cycle;Max_cycle;Signal;HPM_P1;HPM_P2
2023/04/05 00:01:29;;;;;;;5.53;3.15;;;;;;;2.80;68.26;102385.41;5052410;28;20059;-78
2023/04/05 00:03:56;;;;;;;5.82;3.10;;;;;;;2.76;68.40;102398.91;5052778;28;20096;-78
2023/04/05 00:06:25;;;;;;;;;;;;;;;2.71;68.03;102391.03;5051846;28;20053;-78
2023/04/05 00:08:54;;;;;;;4.85;3.10;;;;;;;2.63;68.47;102385.56;5052639;28;20011;-78
2023/04/05 00:11:23;;;;;;;5.47;3.22;;;;;;;2.58;68.48;102389.63;5052391;28;20104;-78
2023/04/05 00:13:49;;;;;;;6.93;3.50;;;;;;;2.55;69.19;102392.06;5051502;28;20055;-78
2023/04/05 00:16:15;;;;;;;6.97;3.30;;;;;;;2.47;69.20;102385.75;5051865;28;20045;-78
2023/04/05 00:18:44;;;;;;;6.50;3.38;;;;;;;2.43;69.13;102386.41;5052238;28;20428;-78
2023/04/05 00:21:13;;;;;;;5.38;3.30;;;;;;;2.40;69.46;102394.84;5051946;28;20020;-78
2023/04/05 00:23:43;;;;;;;5.07;3.10;;;;;;;2.36;69.33;102389.53;5051996;28;20025;-78
2023/04/05 00:26:10;;;;;;;5.50;3.15;;;;;;;2.31;69.36;102385.06;5052390;28;20037;-78
2023/04/05 00:28:35;;;;;;;5.65;3.17;;;;;;;2.27;69.85;102380.59;5051210;28;20033;-78
2023/04/05 00:31:00;;;;;;;5.53;3.10;;;;;;;2.25;70.08;102378.78;5052065;28;20469;-78
2023/04/05 00:33:25;;;;;;;6.03;3.38;;;;;;;2.20;70.05;102372.56;5054449;28;20017;-78
2023/04/05 00:35:51;;;;;;;6.40;3.20;;;;;;;2.13;70.11;102372.31;5055414;28;20427;-78
2023/04/05 00:38:16;;;;;;;4.97;3.15;;;;;;;2.13;70.92;102374.03;5056407;28;20033;-78
2023/04/05 00:40:41;;;;;;;5.25;3.30;;;;;;;2.06;70.57;102370.31;5055439;28;20029;-78
2023/04/05 00:43:07;;;;;;;6.82;3.22;;;;;;;2.05;70.64;102375.34;5055770;28;20111;-78
2023/04/05 00:45:32;;;;;;;5.93;3.53;;;;;;;2.05;70.56;102375.34;5055362;28;20103;-77
2023/04/05 00:47:57;;;;;;;6.35;3.22;;;;;;;1.99;70.99;102370.81;5055291;28;20021;-78
2023/04/05 00:50:23;;;;;;;5.53;3.25;;;;;;;2.02;70.70;102365.00;5055605;28;20029;-78
2023/04/05 00:52:49;;;;;;;6.43;3.40;;;;;;;1.96;71.50;102360.47;5055589;28;20036;-78
2023/04/05 00:55:16;;;;;;;4.88;3.15;;;;;;;1.91;71.29;102361.94;5055306;28;20021;-78
2023/04/05 00:57:44;;;;;;;6.05;3.35;;;;;;;1.89;71.23;102366.09;5055533;28;20033;-78
2023/04/05 01:00:10;;;;;;;6.25;3.40;;;;;;;1.84;71.46;102364.22;5055545;28;20028;-78
2023/04/05 01:02:44;;;;;;;4.53;2.95;;;;;;;1.82;71.19;102359.81;5054579;28;20032;-78
2023/04/05 01:05:24;;;;;;;5.93;3.10;;;;;;;1.79;71.75;102368.25;5055615;28;20473;-78
2023/04/05 01:07:56;;;;;;;4.88;3.00;;;;;;;1.77;72.11;102366.44;5055644;28;20064;-78
2023/04/05 01:10:30;;;;;;;5.53;3.10;;;;;;;1.72;72.00;102368.78;5054444;28;20028;-78
2023/04/05 01:12:55;;;;;;;5.28;2.92;;;;;;;1.66;72.31;102366.81;5055489;28;20021;-78
2023/04/05 01:15:20;;;;;;;7.15;3.38;;;;;;;1.63;71.94;102365.81;5055510;28;20094;-78
2023/04/05 01:17:48;;;;;;;4.57;2.90;;;;;;;1.60;72.58;102366.53;5054820;28;20032;-78
2023/04/05 01:20:14;;;;;;;4.95;3.00;;;;;;;1.57;72.48;102366.41;5055322;28;20031;-78
2023/04/05 01:22:58;;;;;;;5.07;2.78;;;;;;;1.53;72.56;102362.81;5054950;28;20128;-78
2023/04/05 01:25:27;;;;;;;4.85;2.80;;;;;;;1.50;73.34;102357.56;5054964;28;20032;-78
2023/04/05 01:28:23;;;;;;;5.05;2.90;;;;;;;1.43;73.12;102350.38;5055164;28;20052;-78
2023/04/05 01:30:57;;;;;;;4.55;2.88;;;;;;;1.44;72.82;102351.28;5054426;28;20465;-78
2023/04/05 01:33:27;;;;;;;5.93;3.20;;;;;;;1.41;72.51;102358.81;5055045;28;20029;-78
2023/04/05 01:36:19;;;;;;;6.80;3.42;;;;;;;1.36;73.09;102351.78;5055241;28;20029;-78
2023/04/05 01:38:48;;;;;;;5.22;3.28;;;;;;;1.31;73.20;102347.25;5054617;28;20407;-78
2023/04/05 01:41:13;;;;;;;6.68;3.40;;;;;;;1.24;73.15;102335.84;5055201;28;20033;-78
2023/04/05 01:43:39;;;;;;;6.07;3.10;;;;;;;1.25;73.35;102339.31;5054051;28;20128;-78
2023/04/05 01:46:04;;;;;;;6.13;3.33;;;;;;;1.24;73.04;102348.63;5053516;28;20033;-78
2023/04/05 01:48:29;;;;;;;5.78;3.30;;;;;;;1.17;73.74;102338.94;5054717;28;20032;-78
2023/04/05 01:51:01;;;;;;;5.00;3.00;;;;;;;1.15;74.38;102341.44;5054919;28;20492;-78
2023/04/05 01:53:26;;;;;;;4.50;2.90;;;;;;;1.13;73.65;102334.47;5054563;28;20033;-78
2023/04/05 01:55:51;;;;;;;5.40;3.20;;;;;;;1.11;73.88;102338.66;5054676;28;20032;-78
2023/04/05 01:58:17;;;;;;;4.85;2.90;;;;;;;1.04;73.95;102330.69;5053983;28;20140;-78
2023/04/05 02:00:42;;;;;;;4.15;2.83;;;;;;;1.05;74.74;102332.44;5054458;28;20112;-78
2023/04/05 02:03:07;;;;;;;4.57;2.95;;;;;;;1.02;74.21;102336.53;5054889;28;20017;-78
2023/04/05 02:05:32;;;;;;;6.05;3.33;;;;;;;0.98;74.43;102329.50;5052798;28;20461;-78
2023/04/05 02:08:00;;;;;;;7.32;3.30;;;;;;;0.92;74.21;102325.88;5054260;28;20504;-78
2023/04/05 02:10:26;;;;;;;6.00;3.25;;;;;;;0.90;74.50;102324.91;5054033;28;20037;-78
2023/04/05 02:12:51;;;;;;;5.18;3.17;;;;;;;0.92;74.27;102327.53;5053343;28;20071;-78
2023/04/05 02:15:19;;;;;;;6.40;3.20;;;;;;;0.89;75.10;102325.72;5053992;28;20056;-78
2023/04/05 02:17:47;;;;;;;5.70;3.30;;;;;;;0.86;74.74;102317.03;5054318;28;20527;-78
2023/04/05 02:20:13;;;;;;;5.32;2.90;;;;;;;0.82;75.12;102321.13;5053869;28;20032;-78
2023/04/05 02:22:44;;;;;;;4.90;3.05;;;;;;;0.79;75.01;102332.88;5054154;28;20443;-78
2023/04/05 02:25:09;;;;;;;5.88;3.20;;;;;;;0.74;74.96;102327.50;5054488;28;20017;-78
2023/04/05 02:27:35;;;;;;;6.28;3.40;;;;;;;0.69;74.50;102318.75;5053209;28;20029;-78
2023/04/05 02:30:01;;;;;;;4.32;2.88;;;;;;;0.64;74.89;102317.63;5054072;28;20067;-78
2023/04/05 02:32:27;;;;;;;4.83;2.87;;;;;;;0.61;75.12;102323.47;5053807;28;20021;-78
2023/04/05 02:34:52;;;;;;;4.03;2.90;;;;;;;0.55;75.26;102310.41;5053171;28;20449;-78
2023/04/05 02:37:19;;;;;;;5.13;2.72;;;;;;;0.55;75.79;102320.63;5053709;28;20028;-78
2023/04/05 02:39:45;;;;;;;4.47;2.97;;;;;;;0.51;74.68;102314.47;5054002;28;20491;-78
2023/04/05 02:42:10;;;;;;;5.43;3.17;;;;;;;0.50;75.01;102317.84;5053059;28;20025;-78
2023/04/05 02:44:35;;;;;;;4.70;2.95;;;;;;;0.46;75.71;102310.81;5053728;28;20047;-78
2023/04/05 02:47:01;;;;;;;5.60;3.22;;;;;;;0.43;75.29;102308.09;5054399;28;20520;-78
2023/04/05 02:49:26;;;;;;;6.32;3.55;;;;;;;0.42;75.47;102308.91;5052910;28;20135;-78
2023/04/05 02:51:51;;;;;;;6.03;3.20;;;;;;;0.40;75.47;102315.59;5053965;28;20025;-78
2023/04/05 02:54:17;;;;;;;5.43;3.10;;;;;;;0.33;75.43;102313.56;5053051;28;20100;-78
2023/04/05 02:56:42;;;;;;;6.28;3.40;;;;;;;0.32;75.66;102317.81;5052799;28;20025;-78
2023/04/05 02:59:07;;;;;;;5.35;3.05;;;;;;;0.29;75.39;102310.84;5053678;28;20028;-78
2023/04/05 03:01:35;;;;;;;5.00;3.28;;;;;;;0.28;75.59;102311.63;5052422;28;20032;-78
2023/04/05 03:04:03;;;;;;;6.22;3.15;;;;;;;0.26;75.84;102305.59;5053485;28;20048;-78
2023/04/05 03:06:30;;;;;;;7.13;3.42;;;;;;;0.22;75.88;102301.13;5052845;28;20546;-78
2023/04/05 03:08:56;;;;;;;6.28;3.30;;;;;;;0.20;76.58;102302.72;5052651;28;20040;-78
2023/04/05 03:11:21;;;;;;;5.53;3.20;;;;;;;0.17;76.95;102297.44;5052955;28;20028;-78
2023/04/05 03:13:47;;;;;;;5.43;2.85;;;;;;;0.10;76.65;102296.28;5053331;28;20453;-78
2023/04/05 03:16:12;;;;;;;5.30;2.95;;;;;;;0.08;76.04;102290.22;5052783;28;20108;-78
2023/04/05 03:18:37;;;;;;;4.90;3.13;;;;;;;0.07;76.97;102297.78;5052822;28;20496;-78
2023/04/05 03:21:03;;;;;;;4.50;2.90;;;;;;;0.04;76.88;102288.28;5053272;28;20031;-78
2023/04/05 03:23:30;;;;;;;6.22;3.28;;;;;;;0.02;76.39;102283.91;5052103;28;20416;-78
2023/04/05 03:26:00;;;;;;;5.97;3.10;;;;;;;0.02;76.71;102283.91;5053102;28;20044;-78
2023/04/05 03:28:31;;;;;;;6.07;3.33;;;;;;;0.00;76.83;102286.41;5052716;28;20025;-78
2023/04/05 03:30:56;;;;;;;4.43;2.75;;;;;;;-0.07;77.30;102277.56;5052113;28;20033;-78
2023/04/05 03:33:22;;;;;;;4.22;2.80;;;;;;;-0.12;77.18;102275.56;5052196;28;20029;-78
2023/04/05 03:35:47;;;;;;;4.35;2.70;;;;;;;-0.12;77.48;102270.44;5052895;28;20032;-78
2023/04/05 03:38:12;;;;;;;4.22;2.72;;;;;;;-0.16;78.03;102277.03;5052211;28;20032;-78
2023/04/05 03:40:38;;;;;;;4.25;2.90;;;;;;;-0.18;77.21;102276.13;5052668;28;20060;-78
2023/04/05 03:43:03;;;;;;;5.22;3.38;;;;;;;-0.18;76.90;102282.09;5052786;28;20080;-78
2023/04/05 03:45:29;;;;;;;5.72;3.30;;;;;;;-0.21;77.06;102279.38;5051882;28;20132;-78
2023/04/05 03:47:55;;;;;;;5.93;3.25;;;;;;;-0.25;77.04;102271.47;5052866;28;20366;-78
2023/04/05 03:50:20;;;;;;;9.20;3.80;;;;;;;-0.24;76.73;102280.88;5052403;28;20029;-78
2023/04/05 03:52:46;;;;;;;6.65;3.50;;;;;;;-0.25;76.88;102285.13;5051746;28;20039;-78
2023/04/05 03:55:12;;;;;;;6.18;3.13;;;;;;;-0.28;77.86;102273.88;5052366;28;20021;-78
2023/04/05 03:57:38;;;;;;;5.82;3.00;;;;;;;-0.34;78.15;102274.44;5051280;28;20067;-78
2023/04/05 04:00:13;;;;;;;5.35;3.20;;;;;;;-0.36;78.37;102276.03;5052527;28;20025;-78
2023/04/05 04:02:42;;;;;;;4.47;2.90;;;;;;;-0.36;77.83;102276.03;5052499;28;20025;-78
2023/04/05 04:05:10;;;;;;;5.63;2.97;;;;;;;-0.39;78.31;102279.28;5051825;28;20024;-78
2023/04/05 04:07:36;;;;;;;5.85;2.88;;;;;;;-0.42;77.54;102270.59;5064459;22;20131;-78
2023/04/05 04:10:03;;;;;;;5.20;3.13;;;;;;;-0.43;78.05;102263.72;5076530;28;20031;-78
2023/04/05 04:12:28;;;;;;;6.47;3.22;;;;;;;-0.49;77.52;102267.72;5075584;28;20522;-78
2023/04/05 04:14:54;;;;;;;7.50;3.70;;;;;;;-0.50;77.83;102259.97;5076766;28;20103;-78
2023/04/05 04:17:30;;;;;;;6.20;3.70;;;;;;;-0.49;77.64;102272.81;5076579;28;20036;-78
2023/04/05 04:19:56;;;;;;;6.57;3.60;;;;;;;-0.50;78.02;102260.88;5075771;28;20452;-78
2023/04/05 04:22:25;;;;;;;6.68;3.63;;;;;;;-0.50;77.85;102262.53;5076368;28;20017;-78
2023/04/05 04:24:52;;;;;;;7.07;3.78;;;;;;;-0.52;77.68;102265.00;5076633;28;20357;-78
2023/04/05 04:27:19;;;;;;;6.32;3.53;;;;;;;-0.54;78.30;102261.50;5075222;28;20029;-78
2023/04/05 04:29:47;;;;;;;5.90;3.50;;;;;;;-0.55;78.57;102259.72;5076149;28;20484;-78
2023/04/05 04:32:21;;;;;;;6.57;3.20;;;;;;;-0.58;78.64;102258.69;5076500;28;20117;-78
2023/04/05 04:34:46;;;;;;;6.10;3.17;;;;;;;-0.56;78.61;102268.16;5075914;28;20141;-78
2023/04/05 04:37:21;;;;;;;5.72;3.35;;;;;;;-0.59;78.84;102270.59;5076392;28;20058;-78
2023/04/05 04:39:51;;;;;;;4.72;2.97;;;;;;;-0.61;78.53;102261.97;5075747;28;20039;-78
2023/04/05 04:42:18;;;;;;;4.95;3.00;;;;;;;-0.62;78.87;102265.31;5076291;28;20028;-78
2023/04/05 04:44:44;;;;;;;5.70;3.10;;;;;;;-0.62;78.80;102267.84;5075851;28;20025;-78
2023/04/05 04:47:12;;;;;;;4.88;3.13;;;;;;;-0.64;78.30;102262.69;5075317;28;20043;-78
2023/04/05 04:49:40;;;;;;;6.95;3.60;;;;;;;-0.63;78.85;102259.34;5075651;28;20036;-78
2023/04/05 04:52:05;;;;;;;6.38;3.35;;;;;;;-0.64;78.69;102261.78;5076059;28;20035;-78
2023/04/05 04:54:32;;;;;;;6.07;3.33;;;;;;;-0.65;78.46;102265.13;5062012;28;20029;-78
2023/04/05 04:56:58;;;;;;;;;;;;;;;-0.64;78.58;102272.00;5056289;28;20052;-78
2023/04/05 04:59:24;;;;;;;6.70;3.50;;;;;;;-0.66;78.83;102266.81;5055530;28;19987;-78
2023/04/05 05:01:49;;;;;;;6.60;3.33;;;;;;;-0.68;78.70;102262.44;5055015;28;20271;-78
2023/04/05 05:04:14;;;;;;;6.50;3.63;;;;;;;-0.65;79.23;102266.03;5055794;28;20029;-78
2023/04/05 05:06:40;;;;;;;6.38;3.40;;;;;;;-0.74;78.94;102250.25;5055430;28;20021;-78
2023/04/05 05:09:05;;;;;;;6.75;3.58;;;;;;;-0.64;79.05;102261.78;5054667;28;20049;-78
2023/04/05 05:11:31;;;;;;;6.90;3.40;;;;;;;-0.65;79.09;102267.69;5055164;28;20025;-78
2023/04/05 05:13:56;;;;;;;5.50;3.15;;;;;;;-0.69;78.84;102260.69;5055562;28;20027;-78
2023/04/05 05:16:22;;;;;;;5.70;3.25;;;;;;;-0.69;78.88;102266.66;5054220;28;20016;-78
2023/04/05 05:18:49;;;;;;;6.22;3.20;;;;;;;-0.72;79.11;102253.72;5055592;28;20035;-78
2023/04/05 05:21:15;;;;;;;5.82;3.60;;;;;;;-0.72;78.88;102251.19;5055070;28;20457;-78
2023/04/05 05:23:40;;;;;;;5.97;3.42;;;;;;;-0.69;79.36;102247.94;5054252;28;20029;-78
2023/04/05 05:26:06;;;;;;;6.18;3.13;;;;;;;-0.62;79.18;102260.22;5055241;28;20032;-78
2023/04/05 05:28:31;;;;;;;8.80;3.63;;;;;;;-0.63;79.60;102255.91;5054552;28;20653;-78
2023/04/05 05:30:57;;;;;;;5.05;3.08;;;;;;;-0.62;79.45;102255.09;5054184;28;20035;-78
2023/04/05 05:33:23;;;;;;;5.80;3.13;;;;;;;-0.60;79.15;102256.06;5054746;28;20033;-78
2023/04/05 05:35:52;;;;;;;6.32;3.30;;;;;;;-0.58;79.26;102254.50;5055221;28;20066;-78
2023/04/05 05:38:17;;;;;;;6.95;3.40;;;;;;;-0.58;79.10;102251.03;5054396;28;20053;-78
2023/04/05 05:40:43;;;;;;;6.47;3.33;;;;;;;-0.54;79.40;102250.41;5054798;28;20109;-78
2023/04/05 05:43:09;;;;;;;8.23;3.30;;;;;;;-0.53;79.53;102247.06;5054205;28;20024;-78
2023/04/05 05:45:41;;;;;;;6.10;3.30;;;;;;;-0.48;79.50;102246.53;5054485;28;20477;-78
2023/04/05 05:48:06;;;;;;;5.60;3.17;;;;;;;-0.49;80.03;102243.88;5065259;28;20028;-78
2023/04/05 05:50:31;;;;;;;5.80;3.10;;;;;;;-0.42;79.26;102251.06;5073113;28;20021;-78
2023/04/05 05:53:00;;;;;;;5.70;3.38;;;;;;;-0.43;79.50;102246.75;5075042;28;20100;-78
2023/04/05 05:55:25;;;;;;;5.38;3.13;;;;;;;-0.38;79.75;102252.09;5074463;28;20025;-78
2023/04/05 05:57:51;;;;;;;6.68;3.15;;;;;;;-0.35;79.70;102263.34;5068267;28;20085;-78
2023/04/05 06:00:18;;;;;;;5.10;3.22;;;;;;;-0.36;80.18;102258.16;5072802;28;20028;-77
2023/04/05 06:02:44;;;;;;;6.93;3.58;;;;;;;-0.30;79.32;102262.72;5073317;28;20104;-78
2023/04/05 06:05:09;;;;;;;7.00;3.40;;;;;;;-0.30;79.61;102252.50;5073739;28;20439;-77
2023/04/05 06:07:36;;;;;;;6.43;3.40;;;;;;;-0.22;80.13;102263.97;5073142;28;20098;-78
2023/04/05 06:10:02;;;;;;;5.80;3.20;;;;;;;-0.18;79.71;102265.91;5074348;28;20074;-79
2023/04/05 06:12:27;;;;;;;6.88;3.33;;;;;;;-0.13;80.01;102261.03;5073333;28;20021;-78
2023/04/05 06:14:53;;;;;;;5.18;3.13;;;;;;;-0.10;80.89;102262.06;5074151;28;20078;-78
2023/04/05 06:17:25;;;;;;;4.22;2.85;;;;;;;-0.11;80.66;102256.91;5074579;28;20460;-78
2023/04/05 06:19:50;;;;;;;4.40;2.85;;;;;;;-0.05;80.80;102268.28;5073294;28;20024;-78
2023/04/05 06:22:17;;;;;;;4.72;3.03;;;;;;;-0.02;80.17;102265.88;5074059;28;20476;-78
2023/04/05 06:24:42;;;;;;;4.28;2.80;;;;;;;0.03;80.31;102263.56;5072927;28;20048;-78
2023/04/05 06:27:07;;;;;;;4.97;2.80;;;;;;;0.12;81.11;102273.38;5072340;28;20059;-78
2023/04/05 06:29:41;;;;;;;3.20;2.35;;;;;;;0.15;81.86;102263.31;5071217;28;20468;-78
2023/04/05 06:32:09;;;;;;;5.28;3.10;;;;;;;0.24;82.43;102268.00;5072648;28;20028;-78
2023/04/05 06:34:35;;;;;;;10.65;5.10;;;;;;;0.29;84.60;102264.88;5073101;28;20384;-78
2023/04/05 06:37:00;;;;;;;18.55;8.93;;;;;;;0.40;82.04;102270.53;5074038;28;20024;-79
2023/04/05 06:39:25;;;;;;;19.30;9.45;;;;;;;0.48;81.93;102262.34;5073050;28;20417;-79
2023/04/05 06:41:51;;;;;;;19.52;9.82;;;;;;;0.58;82.66;102259.44;5073868;28;20032;-79
2023/04/05 06:44:16;;;;;;;18.13;8.98;;;;;;;0.63;80.83;102263.13;5073704;28;20108;-77
2023/04/05 06:46:41;;;;;;;19.23;8.40;;;;;;;0.75;81.84;102266.25;5072760;28;20033;-77
2023/04/05 06:49:06;;;;;;;16.15;7.70;;;;;;;0.83;80.97;102265.75;5073676;28;20035;-77
2023/04/05 06:51:34;;;;;;;16.65;7.68;;;;;;;0.90;81.06;102265.25;5073480;28;20020;-77
2023/04/05 06:54:00;;;;;;;15.65;7.38;;;;;;;0.97;80.67;102272.41;5072182;28;20021;-77
2023/04/05 06:56:25;;;;;;;15.20;7.40;;;;;;;1.05;80.42;102262.53;5072662;28;20029;-78
2023/04/05 06:58:51;;;;;;;13.27;6.65;;;;;;;1.08;80.45;102258.44;5073534;28;20084;-75
2023/04/05 07:01:17;;;;;;;12.45;5.93;;;;;;;1.54;81.24;102266.47;5072622;28;20028;-78
2023/04/05 07:03:42;;;;;;;15.10;7.10;;;;;;;3.69;78.53;102263.94;5072810;28;20020;-79
2023/04/05 07:06:09;;;;;;;15.43;6.70;;;;;;;6.51;74.58;102263.81;5073096;28;20541;-79
2023/04/05 07:08:37;;;;;;;10.75;5.80;;;;;;;9.16;71.03;102266.22;5049219;28;20045;-78
2023/04/05 07:11:02;;;;;;;13.00;5.75;;;;;;;11.14;63.10;102265.53;5053560;28;20060;-79
2023/04/05 07:13:27;;;;;;;15.25;7.20;;;;;;;12.46;47.65;102266.72;5064532;28;20470;-79
2023/04/05 07:15:59;;;;;;;13.77;6.78;;;;;;;12.96;55.70;102261.44;5072507;28;20027;-78
2023/04/05 07:18:25;;;;;;;14.70;6.65;;;;;;;13.44;47.11;102271.75;5071877;28;20036;-78
2023/04/05 07:20:51;;;;;;;12.27;6.07;;;;;;;12.81;50.79;102268.44;5070276;28;20027;-79
2023/04/05 07:23:16;;;;;;;12.03;6.10;;;;;;;11.83;52.24;102267.47;5052122;28;20021;-79
2023/04/05 07:25:42;;;;;;;12.27;6.20;;;;;;;10.65;54.84;102273.84;5053010;28;20025;-79
2023/04/05 07:28:10;;;;;;;12.77;5.90;;;;;;;9.49;57.72;102273.59;5052583;28;20057;-79
2023/04/05 07:30:36;;;;;;;14.23;6.82;;;;;;;8.42;54.60;102279.78;5052086;28;20025;-79
2023/04/05 07:33:01;;;;;;;12.00;6.47;;;;;;;7.63;59.52;102274.88;5053190;28;20021;-79
2023/04/05 07:35:27;;;;;;;11.30;5.50;;;;;;;6.93;61.49;102263.06;5052723;28;20155;-79
2023/04/05 07:37:52;;;;;;;10.27;5.60;;;;;;;6.45;60.53;102273.16;5052194;28;20025;-79
2023/04/05 07:40:18;;;;;;;13.32;6.90;;;;;;;6.01;61.86;102271.16;5083312;23;20420;-79
2023/04/05 07:42:43;;;;;;;16.03;8.03;;;;;;;5.54;64.41;102269.00;5090910;28;20384;-79
2023/04/05 07:45:09;;;;;;;15.75;7.88;;;;;;;5.25;62.70;102268.16;5092758;28;20426;-79
2023/04/05 07:47:34;;;;;;;15.13;7.75;;;;;;;4.99;63.90;102257.09;5092801;28;20111;-79
2023/04/05 07:50:00;;;;;;;18.93;9.67;;;;;;;4.76;63.78;102265.81;5091769;28;20130;-79
2023/04/05 07:52:25;;;;;;;16.52;8.00;;;;;;;4.70;65.02;102269.88;5092281;28;20131;-79
2023/04/05 07:54:51;;;;;;;14.50;7.50;;;;;;;4.71;66.29;102267.38;5092109;28;20078;-79
2023/04/05 07:57:17;;;;;;;13.10;6.93;;;;;;;4.70;66.50;102257.91;5092286;28;20502;-79
2023/04/05 07:59:42;;;;;;;12.57;5.95;;;;;;;4.76;66.32;102268.38;5092539;28;20024;-79
2023/04/05 08:02:10;;;;;;;11.02;5.88;;;;;;;4.81;66.50;102260.81;5093008;28;20429;-79
2023/04/05 08:04:35;;;;;;;8.75;5.25;;;;;;;4.91;66.53;102264.56;5091663;28;20020;-79
2023/04/05 08:07:01;;;;;;;7.88;4.55;;;;;;;5.01;66.92;102258.88;5092587;28;20437;-79
2023/04/05 08:09:26;;;;;;;9.63;5.25;;;;;;;5.11;64.43;102265.19;5092240;28;20023;-79
2023/04/05 08:11:51;;;;;;;9.57;5.50;;;;;;;5.18;66.00;102250.78;5092270;28;20663;-80
2023/04/05 08:14:16;;;;;;;13.30;6.20;;;;;;;5.25;63.78;102261.28;5092561;28;20043;-79
2023/04/05 08:16:42;;;;;;;16.58;7.60;;;;;;;5.32;59.45;102259.78;5091986;28;20154;-80
2023/04/05 08:19:07;;;;;;;19.85;9.60;;;;;;;5.23;55.68;102250.09;5091854;28;20032;-81
2023/04/05 08:21:33;;;;;;;19.65;9.77;;;;;;;5.25;55.81;102257.84;5092627;28;20044;-81
2023/04/05 08:23:58;;;;;;;18.80;9.53;;;;;;;5.28;56.79;102263.09;5093002;28;20471;-81
2023/04/05 08:26:24;;;;;;;21.65;9.95;;;;;;;5.28;56.67;102260.53;5091876;28;20297;-80
2023/04/05 08:28:50;;;;;;;19.90;10.20;;;;;;;5.33;57.58;102264.09;5092761;28;20026;-79
2023/04/05 08:31:15;;;;;;;19.70;10.10;;;;;;;5.41;56.01;102265.19;5092577;28;20028;-79
2023/04/05 08:33:41;;;;;;;20.80;10.23;;;;;;;5.53;57.60;102266.38;5091779;28;20024;-79
2023/04/05 08:36:07;;;;;;;19.83;9.70;;;;;;;5.59;57.58;102263.97;5092495;28;20463;-79
2023/04/05 08:38:33;;;;;;;20.13;9.93;;;;;;;5.65;56.69;102259.00;5091515;28;20097;-79
2023/04/05 08:41:17;;;;;;;20.85;10.43;;;;;;;5.76;55.79;102261.88;5091572;28;20067;-79
2023/04/05 08:43:58;;;;;;;19.45;10.02;;;;;;;5.81;56.14;102265.44;5092468;28;20016;-79
2023/04/05 08:46:25;;;;;;;21.67;9.68;;;;;;;5.86;57.08;102257.81;5091539;28;20361;-79
2023/04/05 08:48:51;;;;;;;;;;;;;;;6.06;54.79;102257.53;5092322;28;20028;-79
2023/04/05 08:51:21;;;;;;;20.77;10.50;;;;;;;6.19;55.05;102259.63;5092409;28;19918;-79
2023/04/05 08:53:47;;;;;;;21.02;10.35;;;;;;;6.32;55.49;102251.31;5091831;28;20027;-79
2023/04/05 08:56:21;;;;;;;20.63;10.90;;;;;;;6.44;57.28;102262.78;5094149;28;20511;-79
2023/04/05 08:59:00;;;;;;;19.42;10.48;;;;;;;6.57;56.77;102249.34;5095674;28;20278;-75
2023/04/05 09:01:29;;;;;;;20.35;11.20;;;;;;;6.59;55.61;102249.38;5094434;28;20058;-80
2023/04/05 09:03:56;;;;;;;22.05;12.20;;;;;;;6.60;56.80;102248.53;5094752;28;20016;-80
2023/04/05 09:06:22;;;;;;;20.45;10.35;;;;;;;6.79;58.26;102247.28;5094595;28;20381;-80
2023/04/05 09:08:47;;;;;;;20.33;10.07;;;;;;;6.92;53.82;102245.88;5095120;28;20062;-79
2023/04/05 09:11:15;;;;;;;20.53;9.63;;;;;;;7.00;52.89;102246.91;5095482;28;20020;-79
2023/04/05 09:13:40;;;;;;;18.33;8.88;;;;;;;7.10;54.31;102246.25;5095522;28;20027;-80
2023/04/05 09:16:06;;;;;;;20.73;10.03;;;;;;;7.20;50.10;102244.75;5093732;28;20044;-80
2023/04/05 09:18:31;;;;;;;19.77;9.75;;;;;;;7.29;48.74;102243.19;5094506;28;20107;-79
2023/04/05 09:21:03;;;;;;;20.00;9.80;;;;;;;7.33;50.63;102242.41;5095619;28;20073;-79
2023/04/05 09:23:29;;;;;;;18.95;9.15;;;;;;;7.35;49.53;102235.56;5094692;28;20103;-79
2023/04/05 09:25:54;;;;;;;17.50;8.70;;;;;;;7.44;52.20;102232.31;5095532;28;20119;-79
2023/04/05 09:28:20;;;;;;;18.67;8.73;;;;;;;7.68;51.88;102234.50;5093865;28;20024;-78
2023/04/05 09:30:46;;;;;;;18.27;8.50;;;;;;;7.88;48.99;102238.31;5095437;28;20035;-78
2023/04/05 09:33:18;;;;;;;17.75;8.10;;;;;;;8.02;50.34;102235.13;5095607;28;20028;-78
2023/04/05 09:35:44;;;;;;;16.20;7.68;;;;;;;8.17;47.15;102229.31;5094374;28;20027;-79
2023/04/05 09:38:09;;;;;;;17.47;8.17;;;;;;;8.21;45.23;102233.72;5095515;28;20031;-79
2023/04/05 09:40:50;;;;;;;18.80;8.93;;;;;;;8.17;44.29;102232.81;5094981;28;20484;-79
2023/04/05 09:43:34;;;;;;;19.25;8.52;;;;;;;8.13;44.89;102233.59;5093961;28;20546;-79
2023/04/05 09:46:02;;;;;;;18.33;9.25;;;;;;;8.09;42.09;102231.81;5094820;28;20030;-80
2023/04/05 09:48:47;;;;;;;18.52;9.25;;;;;;;7.92;41.07;102236.69;5094819;28;20070;-81
2023/04/05 09:51:16;;;;;;;18.35;8.50;;;;;;;7.95;43.01;102228.97;5094539;28;20055;-76
2023/04/05 09:53:59;;;;;;;17.27;8.60;;;;;;;8.13;44.71;102225.81;5092436;28;20820;-81
2023/04/05 09:56:26;;;;;;;17.10;8.68;;;;;;;8.35;43.52;102227.06;5094452;28;20095;-80
2023/04/05 09:58:51;;;;;;;;;;;;;;;8.37;43.11;102223.63;5095641;28;20018;-80
2023/04/05 10:01:18;;;;;;;18.37;8.60;;;;;;;8.56;43.48;102214.47;5094183;28;19927;-79
2023/04/05 10:03:47;;;;;;;19.08;9.20;;;;;;;8.58;43.13;102215.34;5093636;28;20032;-78
2023/04/05 10:06:14;;;;;;;16.85;7.93;;;;;;;8.63;44.65;102214.56;5093675;28;20024;-79
2023/04/05 10:08:39;;;;;;;15.05;6.95;;;;;;;8.87;45.43;102212.34;5094626;28;20028;-79
2023/04/05 10:11:05;;;;;;;14.80;6.90;;;;;;;9.10;41.23;102210.94;5093888;28;20445;-79
2023/04/05 10:13:31;;;;;;;17.60;8.20;;;;;;;9.01;40.83;102209.94;5094579;28;20057;-80
2023/04/05 10:16:09;;;;;;;17.83;8.03;;;;;;;9.09;43.82;102197.94;5094541;28;20491;-79
2023/04/05 10:18:44;;;;;;;12.13;6.22;;;;;;;9.39;45.89;102207.81;5093418;28;20076;-79
2023/04/05 10:21:10;;;;;;;14.65;7.40;;;;;;;9.51;39.68;102211.38;5094261;28;20032;-79
2023/04/05 10:23:39;;;;;;;16.85;8.10;;;;;;;9.50;40.15;102202.75;5093973;28;20023;-79
2023/04/05 10:26:18;;;;;;;16.08;7.80;;;;;;;9.43;41.27;102196.63;5093585;28;20497;-79
2023/04/05 10:28:55;;;;;;;16.23;7.75;;;;;;;9.45;40.65;102200.97;5093762;28;20036;-78
2023/04/05 10:31:43;;;;;;;16.55;7.40;;;;;;;9.39;37.96;102197.44;5092962;28;20036;-79
2023/04/05 10:34:20;;;;;;;16.38;8.02;;;;;;;9.39;38.29;102204.34;5093743;28;20036;-79
2023/04/05 10:37:02;;;;;;;16.98;8.38;;;;;;;9.18;40.58;102192.00;5093930;28;20024;-79
2023/04/05 10:39:44;;;;;;;15.77;7.25;;;;;;;9.35;43.22;102190.47;5092811;28;20131;-79
2023/04/05 10:42:38;;;;;;;12.27;6.10;;;;;;;9.73;43.95;102190.03;5094165;28;20028;-79
2023/04/05 10:45:08;;;;;;;12.25;5.97;;;;;;;10.09;40.41;102192.06;5084474;28;20043;-79
2023/04/05 10:47:41;;;;;;;14.75;6.85;;;;;;;10.14;36.97;102188.66;5092907;28;20495;-79
2023/04/05 10:50:11;;;;;;;15.95;7.30;;;;;;;10.10;38.53;102184.28;5093886;28;20527;-79
2023/04/05 10:52:39;;;;;;;16.90;7.68;;;;;;;10.10;35.98;102194.66;5092577;28;20081;-79
2023/04/05 10:55:05;;;;;;;18.50;9.05;;;;;;;10.21;37.87;102184.41;5093974;28;20073;-79
2023/04/05 10:57:32;;;;;;;24.23;11.52;;;;;;;10.19;35.80;102181.75;5093753;28;20024;-79
2023/04/05 10:59:58;;;;;;;24.20;12.20;;;;;;;10.15;38.34;102173.94;5092438;28;20197;-79
2023/04/05 11:02:25;;;;;;;23.67;11.82;;;;;;;10.11;38.65;102172.22;5094067;28;20035;-79
2023/04/05 11:04:56;;;;;;;23.13;12.57;;;;;;;9.95;38.19;102173.81;5093820;28;20028;-79
2023/04/05 11:07:21;;;;;;;26.17;14.73;;;;;;;9.62;38.23;102175.22;5092453;28;20765;-79
2023/04/05 11:09:52;;;;;;;29.73;15.50;;;;;;;9.24;36.33;102172.22;5093485;28;20064;-80
2023/04/05 11:12:17;;;;;;;27.27;14.55;;;;;;;9.42;40.50;102168.97;5093953;28;20020;-81
2023/04/05 11:14:43;;;;;;;31.00;17.37;;;;;;;9.56;39.66;102163.94;5092634;28;20107;-79
2023/04/05 11:17:25;;;;;;;33.67;19.57;;;;;;;9.56;36.87;102171.72;5092783;28;20042;-83
2023/04/05 11:19:51;;;;;;;28.75;17.92;;;;;;;9.36;37.10;102162.84;5093629;28;20412;-82
2023/04/05 11:22:27;;;;;;;25.10;14.77;;;;;;;9.45;39.57;102167.28;5092889;28;20114;-81
2023/04/05 11:24:56;;;;;;;25.00;15.35;;;;;;;9.61;37.21;102173.50;5093617;28;20020;-81
2023/04/05 11:27:29;;;;;;;27.60;17.58;;;;;;;9.60;39.10;102162.22;5093041;28;20456;-81
2023/04/05 11:29:55;;;;;;;29.80;20.40;;;;;;;9.61;39.47;102163.97;5092167;28;20039;-81